PROFILE

 METAR AND TAF INFORMATION
ADDS - METARS form results

(1831 UTC 10 April 2021)
http://aviationweather.gov/metar/data/
 
DIAP 101800Z 24007KT 9999 FEW013 29/26 Q1007 NOSIG
TAF DIAP 101700Z 1018/1124 23006KT 9999 SCT012 PROB30 TEMPO 1105/1109 4000 BR TEMPO 1115/1121 TS BKN012 FEW020CB 

 AIRPORT MAP

 RUNWAY INFORMATION
Runway 03 Runway length 9843 ft Runway width 164 ft
Runway elevation 21 ft Runway displaced threshold 0 ft Runway heading 23
Runway 21 Runway length 9843 ft Runway width 164 ft
Runway elevation 11 ft Runway displaced threshold 0 ft Runway heading 203

 AIRPORT FREQUENCIES
Type A/G Name RDO Frequency 568 MHZ
Type ACC Name CON Frequency 121.1 MHZ
Type AFIS Name INFO Frequency 129.1 MHZ
Type ATIS Name ATIS Frequency 126.6 MHZ
Type MISC Name VHF/DF Frequency 118.1 MHZ
Type TWR Name TWR Frequency 118.1 MHZ

 AIRPORT NEAR NAVIGATION AIDS
Type VOR-DME Name Abidjan Frequency 114300 KHZ
Type NDB Name Abidjan Frequency 306 KHZ
Type NDB Name Abidjan Felix Houphouet Boigny Frequency 294 KHZ